This is the latest recevied weather packets stored in our database for station/object F1ZRP-13. If no packets are shown the sender has not sent any weather packets the latest 10 day(s).
| Time | Temp. | Humidity | Pressure | Rain* | Wind** | Luminosity | Snow |
|---|---|---|---|---|---|---|---|
| 1777889901 | 16.67° C | 72% | 1015.7 hPa | - | - | - | - |
| 1777888902 | 16.11° C | 73% | 1015.7 hPa | - | - | - | - |
| 1777887924 | 16.11° C | 71% | 1015.6 hPa | - | - | - | - |
| 1777886770 | 16.67° C | 66% | 1015.5 hPa | - | - | - | - |
| 1777885771 | 17.22° C | 66% | 1015.4 hPa | - | - | - | - |
| 1777885769 | 17.22° C | 66% | 1015.4 hPa | - | - | - | - |
| 1777884660 | 16.67° C | 67% | 1015.4 hPa | - | - | - | - |
| 1777883608 | 16.11° C | 68% | 1015.5 hPa | - | - | - | - |
| 1777882718 | 16.11° C | 69% | 1015.5 hPa | - | - | - | - |
| 1777881792 | 15.56° C | 70% | 1015.4 hPa | - | - | - | - |
| 1777880796 | 15° C | 72% | 1015.2 hPa | - | - | - | - |
| 1777880008 | 14.44° C | 74% | 1015.1 hPa | - | - | - | - |
| 1777879028 | 13.89° C | 76% | 1014.9 hPa | - | - | - | - |
| 1777878200 | 13.33° C | 79% | 1014.9 hPa | - | - | - | - |
| 1777877369 | 12.22° C | 80% | 1015 hPa | - | - | - | - |
| 1777876539 | 12.22° C | 80% | 1015 hPa | - | - | - | - |
| 1777875432 | 11.11° C | 82% | 1015 hPa | - | - | - | - |
| 1777874485 | 11.11° C | 82% | 1014.8 hPa | - | - | - | - |
| 1777873434 | 10° C | 85% | 1014.5 hPa | - | - | - | - |
| 1777872295 | 10° C | 85% | 1014.8 hPa | - | - | - | - |
| 1777871448 | 10° C | 84% | 1014.8 hPa | - | - | - | - |
| 1777870331 | 10° C | 84% | 1014.7 hPa | - | - | - | - |
| 1777869394 | 10° C | 84% | 1014.7 hPa | - | - | - | - |
| 1777868464 | 10° C | 84% | 1014.7 hPa | - | - | - | - |
| 1777867500 | 9.44° C | 84% | 1014.6 hPa | - | - | - | - |
* Rain since midnight (hover to see other rain measurements)
** Current wind speed in m/s (hover to see current wind gust speed)